createdAt,value
2018-11-12T00:01:36.976Z,9.55
2018-11-12T00:04:05.603Z,9.50
2018-11-12T00:06:34.136Z,10.30
2018-11-12T00:09:02.645Z,9.68
2018-11-12T00:11:31.181Z,12.45
2018-11-12T00:13:59.685Z,12.05
2018-11-12T00:16:28.233Z,11.55
2018-11-12T00:18:56.772Z,12.40
2018-11-12T00:21:25.282Z,9.48
2018-11-12T00:23:53.837Z,11.03
2018-11-12T00:26:22.367Z,9.55
2018-11-12T00:28:51.079Z,9.50
2018-11-12T00:31:19.609Z,9.63
2018-11-12T00:33:48.159Z,9.90
2018-11-12T00:36:16.685Z,9.58
2018-11-12T00:38:45.176Z,8.30
2018-11-12T00:41:13.750Z,9.10
2018-11-12T00:43:42.274Z,8.83
2018-11-12T00:46:10.853Z,8.80
2018-11-12T00:48:39.503Z,7.40
2018-11-12T00:51:08.115Z,8.60
2018-11-12T00:53:36.648Z,9.83
2018-11-12T00:56:05.919Z,8.98
2018-11-12T00:58:34.440Z,8.83
2018-11-12T01:01:03.129Z,10.20
2018-11-12T01:03:31.648Z,9.70
2018-11-12T01:06:00.203Z,8.90
2018-11-12T01:08:28.768Z,10.08
2018-11-12T01:10:57.323Z,9.73
2018-11-12T01:13:25.860Z,9.08
2018-11-12T01:15:54.378Z,8.88
2018-11-12T01:18:22.928Z,9.45
2018-11-12T01:20:51.460Z,9.80
2018-11-12T01:23:19.989Z,8.93
2018-11-12T01:25:48.535Z,9.30
2018-11-12T01:28:17.029Z,9.80
2018-11-12T01:30:45.548Z,11.70
2018-11-12T01:33:14.170Z,12.03
2018-11-12T01:35:42.718Z,11.33
2018-11-12T01:38:11.259Z,11.05
2018-11-12T01:40:39.775Z,9.58
2018-11-12T01:43:08.319Z,10.10
2018-11-12T01:45:36.828Z,10.18
2018-11-12T01:48:05.719Z,8.83
2018-11-12T01:50:34.291Z,7.67
2018-11-12T01:53:02.816Z,8.83
2018-11-12T01:55:31.343Z,8.28
2018-11-12T01:57:59.887Z,8.80
2018-11-12T02:00:28.421Z,7.50
2018-11-12T02:02:56.917Z,8.63
2018-11-12T02:05:25.489Z,10.95
2018-11-12T02:07:54.032Z,11.22
2018-11-12T02:10:22.560Z,11.70
2018-11-12T02:12:51.104Z,12.75
2018-11-12T02:15:20.916Z,11.70
2018-11-12T02:17:50.186Z,10.50
2018-11-12T02:20:19.907Z,12.93
2018-11-12T02:22:49.160Z,10.40
2018-11-12T02:25:18.095Z,11.22
2018-11-12T02:27:46.616Z,10.03
2018-11-12T02:30:48.589Z,8.50
2018-11-12T02:33:17.911Z,9.33
2018-11-12T02:35:46.387Z,10.65
2018-11-12T02:38:14.912Z,10.10
2018-11-12T02:40:43.496Z,10.55
2018-11-12T02:43:12.392Z,9.45
2018-11-12T02:45:40.929Z,10.75
2018-11-12T02:48:09.454Z,9.68
2018-11-12T02:50:37.960Z,9.78
2018-11-12T02:53:06.525Z,8.70
2018-11-12T02:55:35.051Z,9.65
2018-11-12T02:58:03.575Z,8.48
2018-11-12T03:00:32.111Z,9.55
2018-11-12T03:03:00.640Z,10.50
2018-11-12T03:05:29.183Z,10.18
2018-11-12T03:07:57.707Z,9.53
2018-11-12T03:10:26.225Z,10.58
2018-11-12T03:12:54.792Z,10.65
2018-11-12T03:15:23.306Z,10.40
2018-11-12T03:17:52.352Z,11.57
2018-11-12T03:20:22.115Z,9.80
2018-11-12T03:22:50.664Z,10.00
2018-11-12T03:25:20.375Z,10.25
2018-11-12T03:27:49.557Z,10.88
2018-11-12T03:30:19.292Z,11.63
2018-11-12T03:32:48.690Z,10.23
2018-11-12T03:35:17.395Z,8.75
2018-11-12T03:37:46.991Z,9.15
2018-11-12T03:40:18.779Z,7.58
2018-11-12T03:42:47.846Z,7.67
2018-11-12T03:45:22.612Z,9.50
2018-11-12T03:47:51.105Z,9.00
2018-11-12T03:50:20.859Z,8.58
2018-11-12T03:52:49.396Z,8.90
2018-11-12T03:55:20.179Z,8.03
2018-11-12T03:57:48.727Z,7.83
2018-11-12T04:00:20.433Z,8.90
2018-11-12T04:02:48.988Z,8.05
2018-11-12T04:05:17.487Z,8.80
2018-11-12T04:07:45.999Z,8.30
2018-11-12T04:10:16.471Z,7.28
2018-11-12T04:12:45.034Z,8.00
2018-11-12T04:15:15.128Z,8.73
2018-11-12T04:17:43.668Z,8.70
2018-11-12T04:20:14.456Z,8.03
2018-11-12T04:22:47.248Z,8.58
2018-11-12T04:25:15.819Z,8.28
2018-11-12T04:27:44.329Z,8.03
2018-11-12T04:30:14.294Z,8.73
2018-11-12T04:32:44.125Z,8.93
2018-11-12T04:35:12.652Z,7.72
2018-11-12T04:37:41.222Z,8.70
2018-11-12T04:40:14.188Z,8.75
2018-11-12T04:42:42.712Z,8.60
2018-11-12T04:45:13.398Z,8.25
2018-11-12T04:47:42.489Z,7.58
2018-11-12T04:50:13.178Z,8.43
2018-11-12T04:52:41.997Z,8.43
2018-11-12T04:55:12.219Z,7.72
2018-11-12T04:57:41.460Z,8.03
2018-11-12T05:00:16.169Z,7.45
2018-11-12T05:02:44.735Z,8.03
2018-11-12T05:05:14.525Z,7.30
2018-11-12T05:07:43.546Z,7.95
2018-11-12T05:10:13.371Z,7.12
2018-11-12T05:12:42.446Z,8.50
2018-11-12T05:15:14.651Z,7.35
2018-11-12T05:17:43.136Z,8.18
2018-11-12T05:20:17.002Z,6.97
2018-11-12T05:22:45.552Z,7.53
2018-11-12T05:25:14.125Z,6.83
2018-11-12T05:27:42.725Z,7.17
2018-11-12T05:30:16.646Z,6.45
2018-11-12T05:32:45.191Z,7.45
2018-11-12T05:35:15.088Z,7.75
2018-11-12T05:37:43.891Z,6.03
2018-11-12T05:40:14.550Z,7.10
2018-11-12T05:42:43.498Z,6.55
2018-11-12T05:45:12.571Z,6.58
2018-11-12T05:47:41.146Z,6.12
2018-11-12T05:50:13.296Z,6.80
2018-11-12T05:52:43.352Z,5.92
2018-11-12T05:55:13.247Z,5.97
2018-11-12T05:57:43.013Z,5.47
2018-11-12T06:00:13.148Z,6.20
2018-11-12T06:02:42.205Z,6.65
2018-11-12T06:05:13.856Z,6.37
2018-11-12T06:07:42.757Z,5.75
2018-11-12T06:10:14.825Z,5.65
2018-11-12T06:12:44.017Z,6.10
2018-11-12T06:15:13.110Z,6.05
2018-11-12T06:17:42.386Z,6.03
2018-11-12T06:20:15.230Z,6.60
2018-11-12T06:22:43.782Z,6.83
2018-11-12T06:25:13.581Z,7.50
2018-11-12T06:27:42.123Z,6.33
2018-11-12T06:30:13.512Z,6.08
2018-11-12T06:32:42.089Z,6.42
2018-11-12T06:35:11.787Z,6.03
2018-11-12T06:37:40.591Z,5.90
2018-11-12T06:40:11.157Z,5.60
2018-11-12T06:42:39.795Z,6.10
2018-11-12T06:45:11.535Z,4.67
2018-11-12T06:47:40.103Z,4.80
2018-11-12T06:50:10.504Z,5.30
2018-11-12T06:52:39.077Z,4.90
2018-11-12T06:55:08.996Z,5.37
2018-11-12T06:57:37.586Z,5.05
2018-11-12T07:00:09.616Z,4.35
2018-11-12T07:02:38.150Z,4.72
2018-11-12T07:05:08.332Z,4.50
2018-11-12T07:07:36.925Z,4.25
2018-11-12T07:10:07.020Z,4.58
2018-11-12T07:12:35.632Z,5.17
2018-11-12T07:15:04.404Z,5.47
2018-11-12T07:17:32.935Z,5.35
2018-11-12T07:20:01.481Z,5.58
2018-11-12T07:22:30.137Z,5.78
2018-11-12T07:24:58.678Z,4.83
2018-11-12T07:27:27.260Z,5.00
2018-11-12T07:29:55.768Z,4.62
2018-11-12T07:32:24.343Z,4.40
2018-11-12T07:34:52.869Z,5.00
2018-11-12T07:37:21.444Z,4.10
2018-11-12T07:39:50.014Z,4.27
2018-11-12T07:42:18.601Z,3.77
2018-11-12T07:44:47.128Z,3.77
2018-11-12T07:47:15.656Z,3.07
2018-11-12T07:49:44.171Z,3.67
2018-11-12T07:52:12.716Z,3.10
2018-11-12T07:54:41.269Z,2.80
2018-11-12T07:57:09.800Z,2.80
2018-11-12T07:59:38.320Z,2.97
2018-11-12T08:02:06.915Z,2.70
2018-11-12T08:04:35.410Z,3.00
2018-11-12T08:07:03.984Z,6.90
2018-11-12T08:09:32.605Z,2.40
2018-11-12T08:12:01.165Z,2.47
2018-11-12T08:14:29.724Z,1.87
2018-11-12T08:16:58.243Z,2.13
2018-11-12T08:19:26.901Z,2.37
2018-11-12T08:21:55.437Z,2.47
2018-11-12T08:24:24.088Z,2.20
2018-11-12T08:26:52.592Z,3.53
2018-11-12T08:29:21.441Z,3.17
2018-11-12T08:31:50.116Z,3.97
2018-11-12T08:34:18.671Z,3.50
2018-11-12T08:36:47.216Z,3.53
2018-11-12T08:39:15.840Z,3.70
2018-11-12T08:41:44.340Z,3.87
2018-11-12T08:44:12.891Z,4.30
2018-11-12T08:46:41.397Z,4.13
2018-11-12T08:49:10.162Z,3.33
2018-11-12T08:51:38.492Z,3.27
2018-11-12T08:54:07.489Z,3.50
2018-11-12T08:56:36.084Z,3.30
2018-11-12T08:59:04.719Z,2.77
2018-11-12T09:01:33.243Z,2.90
2018-11-12T09:04:01.767Z,3.30
2018-11-12T09:06:30.304Z,3.00
2018-11-12T09:08:58.847Z,2.83
2018-11-12T09:11:27.394Z,3.30
2018-11-12T09:13:55.929Z,3.17
2018-11-12T09:16:24.408Z,2.40
2018-11-12T09:18:52.913Z,1.90
2018-11-12T09:21:21.476Z,2.47
2018-11-12T09:23:49.975Z,2.00
2018-11-12T09:26:18.500Z,1.80
2018-11-12T09:28:47.044Z,0.90
2018-11-12T09:31:16.944Z,1.30
2018-11-12T09:33:44.252Z,1.43
2018-11-12T09:36:12.784Z,1.20
2018-11-12T09:38:41.436Z,1.03
2018-11-12T09:41:09.933Z,0.80
2018-11-12T09:43:38.487Z,0.80
2018-11-12T09:46:07.127Z,0.83
2018-11-12T09:48:35.610Z,1.10
2018-11-12T09:51:04.159Z,0.67
2018-11-12T09:53:32.712Z,0.70
2018-11-12T09:56:01.223Z,1.40
2018-11-12T09:58:29.753Z,2.20
2018-11-12T10:00:58.799Z,2.00
2018-11-12T10:03:28.743Z,1.70
2018-11-12T10:05:59.452Z,3.47
2018-11-12T10:08:30.308Z,1.93
2018-11-12T10:11:01.330Z,1.30
2018-11-12T10:13:29.779Z,1.60
2018-11-12T10:15:59.997Z,2.00
2018-11-12T10:18:24.977Z,1.60
2018-11-12T10:20:53.496Z,1.80
2018-11-12T10:23:22.480Z,1.83
2018-11-12T10:25:51.171Z,1.33
2018-11-12T10:28:21.076Z,1.83
2018-11-12T10:30:49.681Z,1.30
2018-11-12T10:33:18.328Z,1.30
2018-11-12T10:35:46.858Z,2.10
2018-11-12T10:38:15.395Z,0.90
2018-11-12T10:40:43.989Z,1.13
2018-11-12T10:43:12.529Z,1.00
2018-11-12T10:45:41.083Z,1.10
2018-11-12T10:48:09.680Z,1.00
2018-11-12T10:50:38.183Z,1.30
2018-11-12T10:53:06.736Z,0.80
2018-11-12T10:55:35.412Z,1.03
2018-11-12T10:58:03.848Z,1.30
2018-11-12T11:00:38.832Z,0.70
2018-11-12T11:03:45.931Z,1.00
2018-11-12T11:06:14.456Z,0.90
2018-11-12T11:08:42.938Z,0.90
2018-11-12T11:11:11.517Z,0.90
2018-11-12T11:13:40.042Z,0.83
2018-11-12T11:16:08.587Z,0.77
2018-11-12T11:18:37.296Z,0.70
2018-11-12T11:21:05.978Z,0.80
2018-11-12T11:23:34.507Z,0.60
2018-11-12T11:26:03.036Z,0.90
2018-11-12T11:28:31.550Z,0.80
2018-11-12T11:31:00.146Z,0.90
2018-11-12T11:33:28.592Z,0.90
2018-11-12T11:35:57.095Z,1.10
2018-11-12T11:38:25.601Z,0.80
2018-11-12T11:40:54.237Z,1.33
2018-11-12T11:43:22.721Z,1.23
2018-11-12T11:45:51.312Z,0.80
2018-11-12T11:48:19.865Z,1.00
2018-11-12T11:50:48.370Z,0.80
2018-11-12T11:53:16.941Z,0.60
2018-11-12T11:55:45.396Z,1.00
2018-11-12T11:58:13.928Z,0.60
2018-11-12T12:00:42.479Z,0.70
2018-11-12T12:03:11.107Z,0.60
2018-11-12T12:05:39.650Z,0.60
2018-11-12T12:08:08.191Z,0.90
2018-11-12T12:10:36.759Z,0.80
2018-11-12T12:13:05.549Z,0.80
2018-11-12T12:15:34.147Z,1.43
2018-11-12T12:18:02.708Z,0.70
2018-11-12T12:20:31.262Z,0.67
2018-11-12T12:22:59.793Z,0.60
2018-11-12T12:25:28.346Z,0.70
2018-11-12T12:27:56.840Z,0.70
2018-11-12T12:30:27.577Z,0.50
2018-11-12T12:32:57.105Z,0.53
2018-11-12T12:35:25.692Z,0.70
2018-11-12T12:37:54.455Z,0.77
2018-11-12T12:40:23.975Z,0.60
2018-11-12T12:42:52.545Z,0.67
2018-11-12T12:45:22.684Z,0.70
2018-11-12T12:47:51.568Z,0.60
2018-11-12T12:50:20.447Z,0.50
2018-11-12T12:52:48.995Z,0.53
2018-11-12T12:55:18.011Z,0.60
2018-11-12T12:57:46.872Z,0.50
2018-11-12T13:00:19.855Z,0.53
2018-11-12T13:02:48.595Z,0.50
2018-11-12T13:05:17.134Z,0.50
2018-11-12T13:07:45.728Z,0.77
2018-11-12T13:10:17.298Z,0.53
2018-11-12T13:12:45.868Z,0.60
2018-11-12T13:15:15.806Z,0.60
2018-11-12T13:17:44.930Z,0.50
2018-11-12T13:20:14.870Z,0.70
2018-11-12T13:22:44.051Z,0.80
2018-11-12T13:25:12.596Z,0.70
2018-11-12T13:27:41.524Z,0.60
2018-11-12T13:30:12.148Z,0.50
2018-11-12T13:32:41.271Z,0.60
2018-11-12T13:35:11.493Z,0.60
2018-11-12T13:37:40.025Z,0.50
2018-11-12T13:40:11.762Z,0.77
2018-11-12T13:42:40.689Z,0.53
2018-11-12T13:45:09.498Z,0.50
2018-11-12T13:47:38.044Z,0.53
2018-11-12T13:50:09.396Z,0.70
2018-11-12T13:52:39.052Z,0.63
2018-11-12T13:55:08.728Z,0.80
2018-11-12T13:57:37.318Z,0.60
2018-11-12T14:00:08.555Z,0.60
2018-11-12T14:02:37.158Z,0.60
2018-11-12T14:05:07.249Z,0.60
2018-11-12T14:07:35.807Z,0.70
2018-11-12T14:10:04.360Z,0.73
2018-11-12T14:12:32.879Z,0.67
2018-11-12T14:15:01.390Z,1.00
2018-11-12T14:17:29.959Z,0.70
2018-11-12T14:19:58.536Z,1.37
2018-11-12T14:22:26.980Z,0.83
2018-11-12T14:24:55.539Z,0.63
2018-11-12T14:27:24.092Z,0.70
2018-11-12T14:29:52.607Z,0.80
2018-11-12T14:32:21.128Z,0.80
2018-11-12T14:34:49.648Z,0.70
2018-11-12T14:37:18.217Z,0.80
2018-11-12T14:39:46.756Z,0.83
2018-11-12T14:42:15.281Z,0.70
2018-11-12T14:44:43.884Z,0.80
2018-11-12T14:47:12.494Z,0.70
2018-11-12T14:49:41.021Z,0.90
2018-11-12T14:52:09.559Z,0.60
2018-11-12T14:54:38.144Z,0.80
2018-11-12T14:57:06.765Z,1.00
2018-11-12T14:59:35.308Z,0.80
2018-11-12T15:02:04.000Z,1.00
2018-11-12T15:04:32.521Z,0.80
2018-11-12T15:07:01.036Z,1.10
2018-11-12T15:09:29.518Z,0.90
2018-11-12T15:11:58.068Z,0.83
2018-11-12T15:14:26.685Z,0.73
2018-11-12T15:16:55.231Z,1.10
2018-11-12T15:19:23.756Z,0.90
2018-11-12T15:21:52.318Z,0.90
2018-11-12T15:24:20.872Z,0.83
2018-11-12T15:26:49.365Z,0.80
2018-11-12T15:29:17.970Z,1.10
2018-11-12T15:31:46.484Z,1.23
2018-11-12T15:34:15.081Z,1.33
2018-11-12T15:36:43.689Z,1.10
2018-11-12T15:39:12.180Z,2.00
2018-11-12T15:41:40.647Z,1.27
2018-11-12T15:44:09.180Z,1.10
2018-11-12T15:46:37.702Z,1.53
2018-11-12T15:49:06.388Z,1.30
2018-11-12T15:51:35.196Z,1.20
2018-11-12T15:54:03.768Z,1.37
2018-11-12T15:56:34.031Z,0.90
2018-11-12T15:59:02.657Z,1.40
2018-11-12T16:01:31.224Z,1.03
2018-11-12T16:03:59.822Z,1.20
2018-11-12T16:06:28.414Z,11.40
2018-11-12T16:08:56.923Z,4.50
2018-11-12T16:11:25.479Z,11.50
2018-11-12T16:13:54.034Z,53.67
2018-11-12T16:16:22.577Z,16.93
2018-11-12T16:18:51.171Z,9.10
2018-11-12T16:21:19.791Z,12.63
2018-11-12T16:23:48.341Z,11.43
2018-11-12T16:26:16.887Z,3.50
2018-11-12T16:28:45.465Z,2.93
2018-11-12T16:31:14.020Z,5.13
2018-11-12T16:33:42.492Z,5.10
2018-11-12T16:36:11.036Z,5.13
2018-11-12T16:38:39.596Z,3.73
2018-11-12T16:41:08.121Z,2.93
2018-11-12T16:43:36.659Z,5.00
2018-11-12T16:46:05.248Z,5.90
2018-11-12T16:48:33.824Z,5.43
2018-11-12T16:51:02.404Z,5.23
2018-11-12T16:53:30.895Z,4.43
2018-11-12T16:55:59.387Z,4.33
2018-11-12T16:58:27.940Z,4.20
2018-11-12T17:00:56.453Z,3.60
2018-11-12T17:03:24.997Z,4.63
2018-11-12T17:05:53.532Z,5.50
2018-11-12T17:08:22.063Z,13.10
2018-11-12T17:10:50.612Z,11.10
2018-11-12T17:13:19.135Z,25.40
2018-11-12T17:15:47.660Z,9.67
2018-11-12T17:18:16.216Z,19.93
2018-11-12T17:20:44.756Z,7.87
2018-11-12T17:23:13.405Z,14.63
2018-11-12T17:25:41.844Z,25.37
2018-11-12T17:28:10.408Z,39.30
2018-11-12T17:30:38.939Z,35.67
2018-11-12T17:33:07.508Z,25.17
2018-11-12T17:35:36.036Z,16.33
2018-11-12T17:38:04.876Z,21.93
2018-11-12T17:40:33.372Z,9.67
2018-11-12T17:43:01.950Z,4.60
2018-11-12T17:45:30.438Z,6.57
2018-11-12T17:47:59.344Z,11.33
2018-11-12T17:50:27.926Z,5.90
2018-11-12T17:52:56.415Z,3.73
2018-11-12T17:55:24.937Z,4.50
2018-11-12T17:57:53.483Z,4.03
2018-11-12T18:00:24.290Z,3.77
2018-11-12T18:02:52.838Z,4.07
2018-11-12T18:05:21.403Z,3.50
2018-11-12T18:07:50.198Z,4.00
2018-11-12T18:10:19.056Z,4.30
2018-11-12T18:12:47.646Z,4.40
2018-11-12T18:15:18.405Z,4.30
2018-11-12T18:17:46.989Z,3.40
2018-11-12T18:20:17.405Z,3.70
2018-11-12T18:22:46.052Z,5.10
2018-11-12T18:25:15.077Z,4.10
2018-11-12T18:27:43.687Z,4.00
2018-11-12T18:30:14.873Z,5.17
2018-11-12T18:32:44.113Z,4.30
2018-11-12T18:35:12.734Z,4.73
2018-11-12T18:37:41.343Z,4.30
2018-11-12T18:40:11.955Z,4.60
2018-11-12T18:42:40.539Z,4.00
2018-11-12T18:45:13.789Z,4.10
2018-11-12T18:47:42.577Z,4.40
2018-11-12T18:50:14.739Z,4.00
2018-11-12T18:52:43.704Z,3.70
2018-11-12T18:55:12.189Z,3.17
2018-11-12T18:57:41.118Z,3.93
2018-11-12T19:00:12.405Z,3.77
2018-11-12T19:02:40.940Z,4.37
2018-11-12T19:05:18.896Z,4.03
2018-11-12T19:07:48.688Z,2.80
2018-11-12T19:10:19.627Z,4.07
2018-11-12T19:12:48.695Z,4.10
2018-11-12T19:15:18.817Z,4.43
2018-11-12T19:17:49.654Z,4.30
2018-11-12T19:20:18.312Z,4.03
2018-11-12T19:22:46.876Z,3.50
2018-11-12T19:25:15.419Z,4.40
2018-11-12T19:27:44.104Z,3.13
2018-11-12T19:30:16.052Z,4.50
2018-11-12T19:32:44.613Z,5.00
2018-11-12T19:35:14.041Z,3.53
2018-11-12T19:37:42.614Z,3.77
2018-11-12T19:40:14.642Z,4.13
2018-11-12T19:42:43.796Z,4.00
2018-11-12T19:45:12.796Z,3.63
2018-11-12T19:47:41.426Z,4.27
2018-11-12T19:50:14.093Z,4.30
2018-11-12T19:52:43.677Z,4.37
2018-11-12T19:55:12.465Z,3.17
2018-11-12T19:57:41.354Z,4.00
2018-11-12T20:00:13.334Z,4.00
2018-11-12T20:02:42.912Z,4.00
2018-11-12T20:05:11.535Z,2.93
2018-11-12T20:07:40.805Z,3.10
2018-11-12T20:10:12.140Z,3.10
2018-11-12T20:12:40.746Z,3.00
2018-11-12T20:15:10.351Z,3.57
2018-11-12T20:17:39.238Z,2.90
2018-11-12T20:20:10.863Z,3.13
2018-11-12T20:22:39.476Z,3.07
2018-11-12T20:25:08.850Z,3.37
2018-11-12T20:27:37.376Z,2.80
2018-11-12T20:30:09.843Z,2.40
2018-11-12T20:32:38.517Z,2.00
2018-11-12T20:35:07.281Z,3.23
2018-11-12T20:37:35.854Z,3.17
2018-11-12T20:40:05.184Z,3.00
2018-11-12T20:42:33.820Z,2.80
2018-11-12T20:45:03.772Z,3.23
2018-11-12T20:47:32.264Z,2.87
2018-11-12T20:50:00.807Z,3.17
2018-11-12T20:52:29.433Z,2.90
2018-11-12T20:54:57.907Z,3.00
2018-11-12T20:57:26.537Z,2.97
2018-11-12T20:59:55.395Z,2.50
2018-11-12T21:02:23.959Z,3.53
2018-11-12T21:04:52.798Z,3.23
2018-11-12T21:07:21.303Z,2.63
2018-11-12T21:09:49.856Z,3.30
2018-11-12T21:12:18.746Z,4.10
2018-11-12T21:14:47.263Z,4.00
2018-11-12T21:17:15.821Z,3.80
2018-11-12T21:19:45.588Z,4.60
2018-11-12T21:22:15.529Z,3.27
2018-11-12T21:24:44.310Z,3.52
2018-11-12T21:27:12.878Z,3.85
2018-11-12T21:29:41.467Z,4.00
2018-11-12T21:32:10.029Z,3.85
2018-11-12T21:34:38.603Z,4.30
2018-11-12T21:37:07.281Z,8.70
2018-11-12T21:39:35.780Z,5.03
2018-11-12T21:42:04.365Z,4.37
2018-11-12T21:44:32.911Z,4.67
2018-11-12T21:47:01.473Z,5.00
2018-11-12T21:49:30.038Z,8.08
2018-11-12T21:51:58.599Z,5.08
2018-11-12T21:54:27.059Z,5.03
2018-11-12T21:56:55.555Z,4.45
2018-11-12T21:59:24.144Z,5.47
2018-11-12T22:01:52.643Z,5.00
2018-11-12T22:04:21.208Z,5.20
2018-11-12T22:06:49.740Z,5.75
2018-11-12T22:09:18.252Z,7.00
2018-11-12T22:11:46.775Z,6.75
2018-11-12T22:14:15.296Z,7.50
2018-11-12T22:16:43.789Z,7.50
2018-11-12T22:19:12.408Z,6.50
2018-11-12T22:21:40.878Z,7.00
2018-11-12T22:24:09.427Z,6.58
2018-11-12T22:26:37.963Z,6.72
2018-11-12T22:29:06.688Z,5.40
2018-11-12T22:31:35.232Z,5.92
2018-11-12T22:34:03.808Z,5.30
2018-11-12T22:36:32.344Z,5.03
2018-11-12T22:39:00.901Z,5.47
2018-11-12T22:41:29.464Z,3.92
2018-11-12T22:43:58.009Z,4.10
2018-11-12T22:46:26.589Z,4.67
2018-11-12T22:48:55.111Z,4.50
2018-11-12T22:51:23.609Z,3.95
2018-11-12T22:53:52.205Z,3.45
2018-11-12T22:56:20.712Z,4.40
2018-11-12T22:58:49.214Z,3.45
2018-11-12T23:01:17.736Z,3.02
2018-11-12T23:03:46.255Z,3.70
2018-11-12T23:06:14.764Z,4.37
2018-11-12T23:08:43.320Z,4.37
2018-11-12T23:11:11.864Z,3.77
2018-11-12T23:13:40.364Z,4.47
2018-11-12T23:16:08.920Z,4.37
2018-11-12T23:18:37.445Z,4.03
2018-11-12T23:21:06.044Z,4.55
2018-11-12T23:23:34.595Z,3.33
2018-11-12T23:26:03.089Z,3.90
2018-11-12T23:28:31.610Z,4.75
2018-11-12T23:31:00.168Z,6.45
2018-11-12T23:33:28.733Z,4.15
2018-11-12T23:35:57.260Z,4.87
2018-11-12T23:38:25.746Z,4.45
2018-11-12T23:40:54.260Z,4.35
2018-11-12T23:43:22.812Z,4.12
2018-11-12T23:45:51.330Z,4.33
2018-11-12T23:48:19.864Z,4.62
2018-11-12T23:50:48.360Z,4.65
2018-11-12T23:53:16.875Z,4.33
2018-11-12T23:55:45.405Z,4.80
2018-11-12T23:58:13.864Z,4.37
